createdAt,value
2022-11-09T00:01:34.882Z,51.50
2022-11-09T00:04:07.721Z,43.20
2022-11-09T00:06:40.419Z,40.73
2022-11-09T00:09:12.859Z,38.23
2022-11-09T00:11:45.728Z,41.23
2022-11-09T00:14:18.994Z,40.52
2022-11-09T00:16:52.469Z,39.42
2022-11-09T00:19:25.320Z,47.67
2022-11-09T00:21:57.996Z,40.20
2022-11-09T00:24:30.454Z,44.38
2022-11-09T00:27:04.546Z,42.95
2022-11-09T00:29:38.128Z,33.47
2022-11-09T00:32:10.612Z,40.60
2022-11-09T00:34:44.364Z,32.70
2022-11-09T00:37:17.981Z,34.67
2022-11-09T00:39:50.476Z,28.77
2022-11-09T00:42:24.796Z,30.48
2022-11-09T00:44:58.048Z,32.75
2022-11-09T00:47:30.716Z,32.90
2022-11-09T00:50:04.131Z,34.88
2022-11-09T00:52:38.583Z,31.20
2022-11-09T00:55:12.245Z,33.33
2022-11-09T00:57:45.116Z,28.42
2022-11-09T01:00:21.931Z,30.57
2022-11-09T01:02:55.113Z,32.03
2022-11-09T01:05:29.457Z,26.20
2022-11-09T01:08:03.817Z,24.98
2022-11-09T01:13:09.072Z,26.20
2022-11-09T01:15:48.656Z,27.60
2022-11-09T01:18:22.742Z,21.77
2022-11-09T01:20:58.121Z,22.20
2022-11-09T01:23:31.955Z,23.65
2022-11-09T01:26:07.210Z,28.05
2022-11-09T01:28:40.016Z,25.80
2022-11-09T01:31:15.007Z,26.93
2022-11-09T01:33:47.407Z,28.45
2022-11-09T01:36:24.410Z,32.58
2022-11-09T01:38:56.930Z,34.80
2022-11-09T01:41:30.395Z,35.90
2022-11-09T01:44:15.081Z,34.55
2022-11-09T01:47:08.818Z,37.50
2022-11-09T01:49:55.107Z,36.77
2022-11-09T01:52:39.341Z,36.10
2022-11-09T01:55:18.326Z,36.60
2022-11-09T01:57:59.415Z,34.30
2022-11-09T02:00:32.513Z,41.70
2022-11-09T02:03:22.944Z,42.58
2022-11-09T02:05:55.915Z,36.53
2022-11-09T02:08:28.769Z,41.18
2022-11-09T02:11:14.497Z,46.40
2022-11-09T02:13:57.484Z,46.30
2022-11-09T02:16:30.300Z,46.70
2022-11-09T02:19:03.247Z,44.90
2022-11-09T02:21:36.019Z,48.58
2022-11-09T02:24:08.904Z,44.08
2022-11-09T02:26:51.362Z,47.50
2022-11-09T02:29:41.162Z,46.77
2022-11-09T02:32:25.496Z,46.05
2022-11-09T02:34:59.501Z,47.20
2022-11-09T02:37:38.115Z,47.03
2022-11-09T02:40:19.437Z,46.83
2022-11-09T02:42:53.104Z,43.17
2022-11-09T02:45:27.210Z,42.17
2022-11-09T02:48:01.186Z,46.10
2022-11-09T02:50:36.572Z,47.15
2022-11-09T02:53:10.130Z,41.92
2022-11-09T02:55:45.181Z,43.35
2022-11-09T02:58:19.734Z,40.78
2022-11-09T03:00:53.710Z,43.25
2022-11-09T03:03:26.995Z,39.33
2022-11-09T03:06:01.162Z,42.13
2022-11-09T03:08:34.631Z,40.70
2022-11-09T03:11:08.577Z,43.48
2022-11-09T03:13:43.082Z,44.38
2022-11-09T03:16:15.660Z,43.10
2022-11-09T03:18:48.539Z,44.58
2022-11-09T03:21:24.627Z,42.45
2022-11-09T03:23:58.355Z,43.05
2022-11-09T03:26:31.668Z,41.60
2022-11-09T03:29:05.920Z,45.73
2022-11-09T03:31:40.030Z,42.83
2022-11-09T03:34:14.182Z,42.13
2022-11-09T03:36:47.718Z,45.23
2022-11-09T03:39:20.556Z,44.65
2022-11-09T03:41:53.109Z,44.83
2022-11-09T03:44:25.678Z,44.65
2022-11-09T03:46:58.240Z,45.73
2022-11-09T03:49:30.715Z,50.25
2022-11-09T03:52:03.694Z,41.15
2022-11-09T03:54:36.454Z,41.48
2022-11-09T03:57:08.821Z,42.67
2022-11-09T03:59:41.965Z,42.27
2022-11-09T04:02:15.402Z,45.45
2022-11-09T04:04:48.992Z,57.35
2022-11-09T07:15:21.143Z,29.07
2022-11-09T07:17:55.942Z,32.40
2022-11-09T07:20:29.010Z,30.88
2022-11-09T07:23:01.516Z,25.20
2022-11-09T07:25:34.840Z,31.45
2022-11-09T07:28:09.412Z,25.17
2022-11-09T07:36:02.719Z,26.25
2022-11-09T07:38:36.911Z,27.67
2022-11-09T07:41:09.485Z,30.00
2022-11-09T07:43:42.580Z,29.50
2022-11-09T07:46:15.464Z,28.10
2022-11-09T07:48:48.584Z,25.57
2022-11-09T07:51:22.035Z,25.60
2022-11-09T07:53:55.698Z,28.57
2022-11-09T07:56:28.627Z,30.12
2022-11-09T07:59:02.094Z,28.27
2022-11-09T08:01:34.666Z,31.33
2022-11-09T08:04:07.210Z,26.62
2022-11-09T08:06:40.148Z,27.60
2022-11-09T08:09:13.223Z,26.68
2022-11-09T08:11:45.865Z,24.27
2022-11-09T08:14:18.994Z,27.75
2022-11-09T08:16:52.705Z,27.17
2022-11-09T08:19:25.140Z,25.02
2022-11-09T08:21:58.138Z,24.55
2022-11-09T08:24:31.925Z,29.70
2022-11-09T08:27:05.428Z,24.10
2022-11-09T08:29:37.843Z,23.15
2022-11-09T08:32:10.609Z,28.77
2022-11-09T08:34:42.972Z,23.52
2022-11-09T08:37:17.097Z,24.92
2022-11-09T08:39:50.545Z,22.82
2022-11-09T08:42:23.326Z,23.15
2022-11-09T08:44:56.788Z,22.00
2022-11-09T08:47:30.813Z,22.40
2022-11-09T08:50:07.405Z,22.62
2022-11-09T08:52:39.956Z,21.65
2022-11-09T08:55:12.457Z,22.90
2022-11-09T08:57:45.547Z,22.82
2022-11-09T09:00:18.949Z,24.67
2022-11-09T09:02:52.679Z,26.47
2022-11-09T09:05:26.687Z,27.15
2022-11-09T09:08:01.777Z,21.60
2022-11-09T09:10:55.913Z,21.07
2022-11-09T09:13:29.090Z,21.67
2022-11-09T09:16:13.017Z,23.83
2022-11-09T09:18:47.880Z,22.87
2022-11-09T09:21:20.838Z,24.07
2022-11-09T09:23:53.485Z,19.23
2022-11-09T09:26:27.171Z,20.12
2022-11-09T09:28:59.793Z,16.62
2022-11-09T09:31:33.258Z,15.35
2022-11-09T09:34:06.776Z,16.33
2022-11-09T09:36:44.739Z,17.65
2022-11-09T09:41:55.565Z,15.40
2022-11-09T09:45:04.753Z,19.07
2022-11-09T09:48:23.086Z,18.27
2022-11-09T09:50:59.128Z,13.40
2022-11-09T09:53:59.290Z,12.78
2022-11-09T09:56:38.514Z,14.20
2022-11-09T09:59:50.891Z,12.15
2022-11-09T10:02:26.098Z,11.40
2022-11-09T10:05:00.902Z,15.83
2022-11-09T10:07:56.748Z,11.45
2022-11-09T10:10:46.475Z,12.33
2022-11-09T10:13:49.694Z,11.22
2022-11-09T10:16:47.335Z,10.85
2022-11-09T10:19:54.693Z,11.03
2022-11-09T10:22:56.050Z,12.10
2022-11-09T10:25:57.685Z,12.47
2022-11-09T10:28:12.849Z,9.58
2022-11-09T10:30:41.496Z,13.95
2022-11-09T10:33:21.727Z,10.65
2022-11-09T10:36:14.946Z,15.72
2022-11-09T10:38:51.331Z,10.38
2022-11-09T10:41:45.873Z,11.75
2022-11-09T10:44:37.174Z,12.85
2022-11-09T10:47:27.628Z,12.25
2022-11-09T10:50:40.357Z,9.38
2022-11-09T10:53:34.907Z,10.20
2022-11-09T10:56:27.196Z,10.45
2022-11-09T10:59:43.179Z,10.53
2022-11-09T11:02:44.303Z,9.93
2022-11-09T11:05:35.910Z,13.48
2022-11-09T11:08:33.853Z,10.90
2022-11-09T11:11:34.303Z,11.48
2022-11-09T11:14:29.937Z,52.25
2022-11-09T11:17:41.274Z,19.20
2022-11-09T11:20:36.328Z,10.70
2022-11-09T11:23:27.581Z,8.85
2022-11-09T11:26:53.515Z,9.73
2022-11-09T11:30:02.246Z,8.85
2022-11-09T11:32:52.870Z,11.28
2022-11-09T11:36:10.764Z,12.13
2022-11-09T11:39:34.500Z,17.33
2022-11-09T11:43:06.594Z,40.55
2022-11-09T11:46:36.365Z,13.65
2022-11-09T11:49:55.621Z,10.75
2022-11-09T11:53:30.559Z,12.90
2022-11-09T11:56:37.996Z,11.53
2022-11-09T11:59:48.210Z,13.35
2022-11-09T12:03:16.108Z,13.98
2022-11-09T12:06:44.460Z,16.52
2022-11-09T12:09:55.899Z,12.35
2022-11-09T12:13:33.588Z,10.80
2022-11-09T12:16:31.645Z,11.90
2022-11-09T12:19:40.475Z,11.63
2022-11-09T12:22:54.076Z,10.13
2022-11-09T12:25:55.852Z,9.15
2022-11-09T12:29:02.731Z,7.95
2022-11-09T12:32:24.729Z,10.10
2022-11-09T12:35:47.009Z,7.17
2022-11-09T12:38:42.974Z,8.13
2022-11-09T12:41:37.410Z,9.83
2022-11-09T12:44:38.352Z,6.85
2022-11-09T12:47:34.074Z,8.28
2022-11-09T12:50:26.345Z,7.87
2022-11-09T12:53:18.766Z,7.80
2022-11-09T12:56:27.162Z,8.60
2022-11-09T12:59:30.065Z,7.65
2022-11-09T16:09:18.956Z,25.62
2022-11-09T16:12:09.879Z,28.00
2022-11-09T16:15:01.568Z,23.67
2022-11-09T16:17:52.117Z,24.65
2022-11-09T16:20:43.523Z,25.20
2022-11-09T16:23:34.386Z,23.90
2022-11-09T16:26:24.854Z,24.75
2022-11-09T16:29:16.313Z,25.88
2022-11-09T16:32:06.934Z,23.95
2022-11-09T16:35:23.264Z,26.77
2022-11-09T16:37:52.377Z,25.17
2022-11-09T16:40:42.992Z,25.08
2022-11-09T16:46:32.004Z,25.70
2022-11-09T16:49:23.014Z,28.23
2022-11-09T16:52:14.330Z,29.55
2022-11-09T16:55:04.975Z,23.45
2022-11-09T16:57:55.632Z,26.45
2022-11-09T17:03:42.964Z,21.93
2022-11-09T17:06:36.783Z,23.22
2022-11-09T17:09:27.890Z,25.95
2022-11-09T17:12:19.096Z,25.35
2022-11-09T17:15:10.743Z,24.67
2022-11-09T17:18:01.581Z,27.35
2022-11-09T17:20:53.763Z,26.65
2022-11-09T17:23:45.582Z,23.47
2022-11-09T17:26:37.731Z,26.55
2022-11-09T17:29:27.961Z,27.85
2022-11-09T17:32:20.281Z,28.98
2022-11-09T17:35:10.546Z,32.85
2022-11-09T17:38:02.226Z,29.20
2022-11-09T17:40:52.701Z,24.50
2022-11-09T17:43:45.523Z,32.20
2022-11-09T17:46:36.114Z,26.65
2022-11-09T17:49:26.693Z,26.27
2022-11-09T17:52:18.788Z,26.57
2022-11-09T17:55:09.876Z,30.02
2022-11-09T17:58:01.207Z,29.70
2022-11-09T18:00:51.705Z,32.20
2022-11-09T18:03:43.037Z,27.67
2022-11-09T18:06:34.017Z,31.62
2022-11-09T18:09:40.787Z,31.37
2022-11-09T18:12:17.587Z,32.08
2022-11-09T18:15:10.861Z,32.78
2022-11-09T18:18:01.368Z,30.30
2022-11-09T18:20:53.174Z,27.52
2022-11-09T18:23:45.125Z,28.67
2022-11-09T18:26:36.142Z,32.88
2022-11-09T18:29:27.003Z,30.32
2022-11-09T18:32:17.727Z,30.80
2022-11-09T18:35:08.474Z,29.55
2022-11-09T18:37:59.877Z,32.83
2022-11-09T18:41:10.045Z,32.65
2022-11-09T18:44:00.233Z,30.85
2022-11-09T18:46:50.630Z,34.95
2022-11-09T18:49:43.672Z,30.20
2022-11-09T18:52:36.590Z,34.18
2022-11-09T18:55:27.000Z,35.85
2022-11-09T18:58:19.456Z,33.58
2022-11-09T19:01:10.395Z,31.37
2022-11-09T19:04:03.103Z,30.97
2022-11-09T19:06:55.087Z,38.45
2022-11-09T19:09:46.000Z,30.25
2022-11-09T19:12:36.493Z,29.75
2022-11-09T19:15:27.003Z,28.10
2022-11-09T19:18:18.221Z,29.90
2022-11-09T19:21:21.281Z,31.05
2022-11-09T19:24:18.888Z,30.90
2022-11-09T19:27:09.495Z,29.40
2022-11-09T19:30:06.294Z,31.85
2022-11-09T19:32:53.301Z,34.83
2022-11-09T19:36:01.777Z,35.70
2022-11-09T19:38:37.499Z,37.63
2022-11-09T19:41:31.885Z,33.75
2022-11-09T19:44:22.196Z,38.02
2022-11-09T19:47:12.778Z,35.98
2022-11-09T19:50:04.615Z,34.35
2022-11-09T19:52:55.706Z,34.05
2022-11-09T19:55:48.151Z,34.73
2022-11-09T19:58:39.834Z,36.25
2022-11-09T20:01:32.311Z,41.75
2022-11-09T20:04:24.015Z,37.98
2022-11-09T20:07:14.695Z,37.45
2022-11-09T20:10:27.419Z,36.70
2022-11-09T20:13:22.475Z,35.48
2022-11-09T20:19:04.129Z,37.48
2022-11-09T20:21:56.949Z,36.75
2022-11-09T20:24:47.940Z,35.43
2022-11-09T20:27:38.338Z,35.78
2022-11-09T20:30:38.576Z,36.80
2022-11-09T20:33:39.086Z,39.75
2022-11-09T20:36:28.674Z,38.45
2022-11-09T20:39:20.769Z,36.05
2022-11-09T20:42:13.416Z,41.20
2022-11-09T20:45:04.948Z,38.78
2022-11-09T20:48:14.371Z,35.58
2022-11-09T20:50:49.976Z,38.42
2022-11-09T20:53:40.842Z,35.50
2022-11-09T20:56:33.617Z,36.73
2022-11-09T20:59:25.690Z,35.15
2022-11-09T21:02:22.315Z,34.92
2022-11-09T21:05:15.999Z,36.68
2022-11-09T21:08:06.195Z,38.33
2022-11-09T21:10:57.488Z,39.13
2022-11-09T21:13:52.586Z,37.03
2022-11-09T21:16:43.632Z,38.70
2022-11-09T21:19:34.615Z,40.40
2022-11-09T21:22:30.839Z,39.27
2022-11-09T21:25:40.374Z,39.03
2022-11-09T21:28:50.091Z,37.20
2022-11-09T21:31:40.817Z,38.42
2022-11-09T21:34:36.257Z,40.10
2022-11-09T21:37:23.802Z,40.48
2022-11-09T21:40:15.485Z,40.23
2022-11-09T21:43:06.511Z,37.93
2022-11-09T21:45:58.343Z,43.42
2022-11-09T21:48:48.899Z,40.40
2022-11-09T21:51:40.720Z,38.10
2022-11-09T21:54:33.358Z,42.83
2022-11-09T21:57:23.837Z,40.92
2022-11-09T22:00:15.722Z,40.48
2022-11-09T22:03:06.462Z,42.70
2022-11-09T22:05:56.874Z,39.25
2022-11-09T22:08:48.072Z,40.52
2022-11-09T22:11:58.271Z,41.20
2022-11-09T22:15:06.533Z,38.80
2022-11-09T22:17:59.180Z,46.40
2022-11-09T22:20:56.246Z,43.63
2022-11-09T22:23:46.424Z,41.35
2022-11-09T22:26:37.437Z,45.20
2022-11-09T22:29:27.962Z,41.77
2022-11-09T22:32:19.363Z,44.93
2022-11-09T22:35:10.769Z,39.48
2022-11-09T22:38:04.731Z,41.35
2022-11-09T22:40:55.262Z,43.78
2022-11-09T22:43:45.997Z,41.37
2022-11-09T22:46:39.279Z,47.50
2022-11-09T22:49:30.960Z,43.08
2022-11-09T22:52:22.604Z,40.25
2022-11-09T22:55:13.037Z,46.45
2022-11-09T22:58:03.735Z,41.60
2022-11-09T23:00:54.202Z,46.18
2022-11-09T23:03:44.929Z,38.55
2022-11-09T23:06:36.452Z,44.93
2022-11-09T23:09:27.397Z,43.50
2022-11-09T23:12:19.193Z,44.73
2022-11-09T23:15:13.454Z,44.58
2022-11-09T23:18:24.905Z,43.75
2022-11-09T23:21:15.539Z,46.85
2022-11-09T23:24:09.886Z,47.00
2022-11-09T23:27:00.365Z,46.15
2022-11-09T23:29:50.791Z,50.73
2022-11-09T23:32:42.058Z,54.75
2022-11-09T23:35:33.581Z,49.25
2022-11-09T23:38:25.042Z,48.98
2022-11-09T23:41:16.468Z,50.95
2022-11-09T23:44:06.858Z,47.62
2022-11-09T23:46:57.843Z,48.85
2022-11-09T23:49:48.731Z,44.42
2022-11-09T23:52:39.616Z,48.42
2022-11-09T23:55:31.578Z,49.23
2022-11-09T23:58:21.948Z,45.52
